Time;durP1;ratioP1;P1;durP2;ratioP2;P2;SDS_P1;SDS_P2;PMS_P1;PMS_P2;Temp;Humidity;BMP_temperature;BMP_pressure;BME280_temperature;BME280_humidity;BME280_pressure;Samples;Min_cycle;Max_cycle;Signal;HPM_P1;HPM_P2
2022/07/12 00:00:48;;;;;;;2.33;1.20;;;13.90;99.90;;;;;;10387426;28;20431;-78
2022/07/12 00:06:09;;;;;;;2.25;1.50;;;13.80;99.90;;;;;;10355075;28;20283;-78
2022/07/12 00:11:30;;;;;;;2.85;1.70;;;13.90;99.90;;;;;;10340660;28;20590;-78
2022/07/12 00:16:52;;;;;;;3.78;1.92;;;13.90;99.90;;;;;;10301001;28;20286;-78
2022/07/12 00:22:14;;;;;;;2.08;1.55;;;13.90;99.90;;;;;;10333721;28;20201;-78
2022/07/12 00:27:36;;;;;;;3.75;1.60;;;13.90;99.90;;;;;;10367908;28;20466;-79
2022/07/12 00:32:57;;;;;;;2.50;1.30;;;13.90;99.90;;;;;;10348430;28;20257;-78
2022/07/12 00:38:19;;;;;;;1.50;1.30;;;13.90;99.90;;;;;;10370248;28;20234;-79
2022/07/12 00:43:41;;;;;;;4.80;1.90;;;14.00;99.90;;;;;;10338094;28;20405;-80
2022/07/12 00:49:03;;;;;;;1.95;1.42;;;14.00;99.90;;;;;;10369950;28;20208;-78
2022/07/12 00:54:24;;;;;;;2.75;1.67;;;14.00;99.90;;;;;;10327504;28;20210;-78
2022/07/12 00:59:46;;;;;;;3.40;1.85;;;13.90;99.90;;;;;;10393970;28;20236;-79
2022/07/12 01:05:08;;;;;;;4.97;1.70;;;13.80;99.90;;;;;;10313023;28;20200;-78
2022/07/12 01:10:31;;;;;;;1.90;1.60;;;13.90;99.90;;;;;;10333173;28;20196;-79
2022/07/12 01:15:53;;;;;;;3.08;1.17;;;13.90;99.90;;;;;;10352528;28;20218;-78
2022/07/12 01:21:19;;;;;;;2.45;1.38;;;13.90;99.90;;;;;;10336799;28;20216;-80
2022/07/12 01:26:41;;;;;;;2.30;1.40;;;13.80;99.90;;;;;;10289036;28;20254;-80
2022/07/12 01:37:44;;;;;;;2.65;1.60;;;13.80;99.90;;;;;;10353173;28;20278;-78
2022/07/12 01:43:06;;;;;;;2.25;1.67;;;13.80;99.90;;;;;;10353156;28;20195;-78
2022/07/12 01:48:28;;;;;;;1.67;1.50;;;13.70;99.90;;;;;;10345849;28;20228;-78
2022/07/12 01:53:49;;;;;;;1.70;1.40;;;13.70;99.90;;;;;;10361625;28;20245;-78
2022/07/12 01:59:11;;;;;;;1.92;1.50;;;13.70;99.90;;;;;;10356390;28;20226;-78
2022/07/12 02:04:33;;;;;;;2.80;1.92;;;13.60;99.90;;;;;;10359755;28;20191;-78
2022/07/12 02:09:54;;;;;;;3.92;2.03;;;13.50;99.90;;;;;;10326494;28;20208;-78
2022/07/12 02:15:16;;;;;;;2.70;1.65;;;13.60;99.90;;;;;;10320463;28;20199;-79
2022/07/12 02:20:38;;;;;;;2.85;1.83;;;13.60;99.90;;;;;;10349721;28;20270;-78
2022/07/12 02:26:00;;;;;;;6.80;4.80;;;13.60;99.90;;;;;;10332838;28;20261;-78
2022/07/12 02:31:21;;;;;;;5.40;3.70;;;13.60;99.90;;;;;;10351381;28;20241;-78
2022/07/12 02:36:44;;;;;;;5.18;2.92;;;;;;;;;;10374841;28;20233;-79
2022/07/12 02:42:06;;;;;;;4.45;2.70;;;;;;;;;;10357694;28;20221;-77
2022/07/12 02:47:27;;;;;;;2.50;2.22;;;13.50;99.90;;;;;;10357934;28;20291;-78
2022/07/12 02:52:48;;;;;;;2.55;1.88;;;13.50;99.90;;;;;;10343734;28;20222;-78
2022/07/12 02:58:11;;;;;;;2.75;2.05;;;13.60;99.90;;;;;;10393910;28;20231;-78
2022/07/12 03:03:34;;;;;;;2.63;1.60;;;;;;;;;;10347948;28;20197;-78
2022/07/12 03:08:57;;;;;;;2.33;1.80;;;;;;;;;;10356840;28;20504;-78
2022/07/12 03:14:20;;;;;;;1.70;1.60;;;;;;;;;;10317036;28;20197;-79
2022/07/12 03:19:42;;;;;;;3.03;1.65;;;13.50;99.90;;;;;;10346510;28;20230;-78
2022/07/12 03:25:03;;;;;;;3.47;1.50;;;13.60;99.90;;;;;;10354638;28;20215;-78
2022/07/12 03:30:25;;;;;;;1.42;1.30;;;13.60;99.90;;;;;;10369653;28;20207;-78
2022/07/12 03:35:47;;;;;;;2.17;1.80;;;13.60;99.90;;;;;;10355716;28;20278;-78
2022/07/12 03:41:08;;;;;;;2.90;2.08;;;13.70;99.90;;;;;;10357177;28;20229;-77
2022/07/12 03:46:32;;;;;;;1.92;1.70;;;;;;;;;;10351622;28;20202;-77
2022/07/12 03:51:54;;;;;;;2.08;1.75;;;13.90;99.90;;;;;;10316589;28;20388;-78
2022/07/12 03:57:15;;;;;;;2.13;1.90;;;13.90;99.90;;;;;;10346451;28;20216;-78
2022/07/12 04:02:37;;;;;;;2.70;2.45;;;13.80;99.90;;;;;;10356204;28;20221;-79
2022/07/12 04:08:01;;;;;;;2.75;1.88;;;13.80;99.90;;;;;;10325798;28;20224;-78
2022/07/12 04:13:23;;;;;;;1.60;1.40;;;13.90;99.90;;;;;;10315349;28;20551;-79
2022/07/12 04:18:44;;;;;;;1.67;1.40;;;13.90;99.90;;;;;;10349908;28;20231;-78
2022/07/12 04:24:06;;;;;;;3.05;1.52;;;14.00;99.90;;;;;;10354421;28;20193;-78
2022/07/12 04:29:28;;;;;;;1.45;1.35;;;14.10;99.90;;;;;;10339020;28;20259;-78
2022/07/12 04:34:49;;;;;;;1.67;1.52;;;14.20;99.90;;;;;;10353198;28;20193;-78
2022/07/12 04:40:11;;;;;;;1.70;1.60;;;14.20;99.90;;;;;;10329512;28;20277;-78
2022/07/12 04:45:33;;;;;;;2.28;1.30;;;14.30;99.90;;;;;;10336871;28;20193;-79
2022/07/12 04:50:54;;;;;;;4.18;1.92;;;14.30;99.90;;;;;;10355106;28;20540;-79
2022/07/12 04:56:16;;;;;;;1.58;1.48;;;14.40;99.90;;;;;;10360267;28;20199;-78
2022/07/12 05:01:38;;;;;;;1.75;1.02;;;14.50;99.90;;;;;;10327460;28;20554;-78
2022/07/12 05:06:59;;;;;;;1.55;1.45;;;14.60;99.90;;;;;;10331443;28;20224;-78
2022/07/12 05:12:21;;;;;;;2.90;1.40;;;14.70;99.90;;;;;;10367202;28;20259;-78
2022/07/12 05:17:42;;;;;;;3.13;1.05;;;14.90;99.90;;;;;;10329997;28;20238;-78
2022/07/12 05:23:04;;;;;;;1.60;0.90;;;15.00;99.90;;;;;;10329163;28;20457;-78
2022/07/12 05:28:25;;;;;;;0.98;0.90;;;15.10;99.90;;;;;;10341765;28;20415;-78
2022/07/12 05:33:47;;;;;;;0.80;0.80;;;15.20;99.90;;;;;;10326517;28;20206;-79
2022/07/12 05:39:08;;;;;;;2.00;1.08;;;15.30;99.90;;;;;;10355865;28;20221;-77
2022/07/12 05:44:30;;;;;;;1.55;1.10;;;15.50;99.90;;;;;;10361695;28;20323;-78
2022/07/12 05:49:51;;;;;;;1.90;1.02;;;15.70;99.90;;;;;;10320357;28;20196;-78
2022/07/12 05:55:14;;;;;;;2.13;1.08;;;15.80;99.90;;;;;;10346502;28;20521;-77
2022/07/12 06:00:35;;;;;;;1.65;0.85;;;16.00;99.90;;;;;;10401440;28;20234;-77
2022/07/12 06:05:57;;;;;;;0.80;0.80;;;16.20;99.90;;;;;;10386877;28;20204;-78
2022/07/12 06:11:18;;;;;;;1.80;0.90;;;16.40;99.90;;;;;;10335132;28;20206;-79
2022/07/12 06:16:40;;;;;;;1.20;0.80;;;17.30;99.90;;;;;;10360520;28;20200;-78
2022/07/12 06:22:01;;;;;;;2.15;1.00;;;16.70;94.40;;;;;;10360070;28;20196;-78
2022/07/12 06:27:23;;;;;;;0.88;0.75;;;17.00;31.10;;;;;;10334063;28;20236;-77
2022/07/12 06:32:46;;;;;;;1.33;1.10;;;17.20;1.00;;;;;;10353685;28;20246;-77
2022/07/12 06:38:08;;;;;;;1.63;0.98;;;17.50;1.00;;;;;;10305198;28;20303;-76
2022/07/12 06:43:30;;;;;;;0.77;0.60;;;17.90;1.00;;;;;;10331702;28;20200;-77
2022/07/12 06:48:52;;;;;;;2.20;0.82;;;18.40;1.00;;;;;;10372020;28;20208;-78
2022/07/12 06:54:13;;;;;;;1.75;0.60;;;18.80;1.00;;;;;;10358224;28;20196;-78
2022/07/12 06:59:35;;;;;;;1.27;0.60;;;19.30;1.00;;;;;;10399256;28;20279;-78
2022/07/12 07:04:57;;;;;;;2.25;0.50;;;20.00;1.00;;;;;;10373847;28;20269;-78
2022/07/12 07:10:18;;;;;;;1.08;0.70;;;20.50;1.00;;;;;;10359487;28;20208;-78
2022/07/12 07:15:40;;;;;;;4.85;0.73;;;21.00;98.20;;;;;;10339896;28;20512;-79
2022/07/12 07:21:02;;;;;;;0.88;0.52;;;21.20;97.90;;;;;;10334153;28;20288;-81
2022/07/12 07:26:23;;;;;;;5.65;0.77;;;21.50;95.10;;;;;;10342269;28;20309;-78
2022/07/12 07:31:45;;;;;;;0.50;0.50;;;21.90;93.70;;;;;;10350369;28;20198;-82
2022/07/12 07:37:06;;;;;;;0.63;0.50;;;22.20;91.20;;;;;;10340596;28;20194;-77
2022/07/12 07:42:28;;;;;;;1.23;0.77;;;22.10;90.10;;;;;;10309267;28;20493;-79
2022/07/12 07:47:50;;;;;;;1.73;0.60;;;21.90;91.40;;;;;;10359501;28;20205;-85
2022/07/12 07:53:31;;;;;;;2.70;0.68;;;21.90;87.80;;;;;;10328167;28;20222;-82
2022/07/12 07:58:53;;;;;;;0.77;0.55;;;22.40;84.00;;;;;;10350012;28;20225;-79
2022/07/12 08:04:16;;;;;;;1.77;0.95;;;22.70;81.20;;;;;;10363451;28;20269;-78
2022/07/12 08:09:38;;;;;;;1.63;0.85;;;22.80;68.00;;;;;;10348850;28;20253;-77
2022/07/12 08:14:59;;;;;;;2.42;0.90;;;23.30;67.30;;;;;;10329764;28;20210;-78
2022/07/12 08:20:22;;;;;;;1.92;0.60;;;23.60;57.60;;;;;;10337657;28;20293;-79
2022/07/12 08:26:03;;;;;;;4.40;0.70;;;24.20;50.60;;;;;;10364000;28;20255;-78
2022/07/12 08:31:25;;;;;;;0.82;0.70;;;24.50;49.00;;;;;;10301944;28;20242;-78
2022/07/12 08:36:46;;;;;;;9.30;0.73;;;24.80;48.20;;;;;;10322932;28;20716;-84
2022/07/12 08:42:09;;;;;;;1.70;0.70;;;24.10;52.20;;;;;;10308228;28;20586;-79
2022/07/12 08:47:30;;;;;;;0.50;0.50;;;23.80;54.90;;;;;;10331305;28;20426;-78
2022/07/12 08:52:53;;;;;;;2.63;0.85;;;24.30;56.50;;;;;;10325057;28;20206;-78
2022/07/12 08:58:18;;;;;;;5.70;1.13;;;25.10;49.90;;;;;;10348198;28;20222;-78
2022/07/12 09:03:40;;;;;;;1.05;0.55;;;24.40;47.00;;;;;;10332575;28;20217;-82
2022/07/12 09:09:02;;;;;;;1.42;0.80;;;24.30;45.80;;;;;;10301144;28;20273;-78
2022/07/12 09:14:24;;;;;;;1.15;0.60;;;24.20;45.90;;;;;;10350940;28;20256;-79
2022/07/12 09:19:55;;;;;;;0.65;0.40;;;24.60;42.70;;;;;;10369077;28;20256;-77
2022/07/12 09:25:20;;;;;;;1.23;0.47;;;24.30;44.70;;;;;;10314660;28;20229;-78
2022/07/12 09:30:50;;;;;;;2.28;0.93;;;24.10;39.80;;;;;;10331433;28;20202;-79
2022/07/12 09:36:14;;;;;;;1.20;0.50;;;24.40;40.70;;;;;;10315055;28;20203;-79
2022/07/12 09:41:35;;;;;;;0.50;0.40;;;24.90;42.80;;;;;;10300796;28;20246;-78
2022/07/12 09:47:00;;;;;;;0.82;0.50;;;24.60;39.50;;;;;;10354446;28;20643;-85
2022/07/12 09:52:25;;;;;;;2.13;0.55;;;24.90;36.70;;;;;;10355654;28;20386;-77
2022/07/12 09:57:46;;;;;;;1.60;0.60;;;25.80;37.20;;;;;;10400944;28;20293;-77
2022/07/12 10:03:12;;;;;;;0.80;0.50;;;26.10;32.20;;;;;;10409206;28;20209;-78
2022/07/12 10:08:35;;;;;;;1.63;0.70;;;26.10;30.40;;;;;;10352319;28;20198;-77
2022/07/12 10:13:57;;;;;;;0.60;0.60;;;25.60;30.00;;;;;;10324423;28;20209;-76
2022/07/12 10:19:31;;;;;;;4.45;1.33;;;25.20;31.40;;;;;;10349849;28;20252;-81
2022/07/12 10:24:52;;;;;;;2.50;1.05;;;25.50;32.00;;;;;;10352620;28;20202;-80
2022/07/12 10:30:19;;;;;;;1.40;0.70;;;25.10;32.70;;;;;;10333515;28;20265;-77
2022/07/12 10:36:01;;;;;;;1.02;0.73;;;25.40;29.70;;;;;;10329224;28;20198;-79
2022/07/12 10:41:23;;;;;;;2.60;1.83;;;25.80;28.20;;;;;;10313490;28;20528;-78
2022/07/12 10:47:00;;;;;;;0.80;0.60;;;26.20;25.30;;;;;;10329505;28;20438;-79
2022/07/12 10:52:26;;;;;;;8.70;0.80;;;26.20;24.10;;;;;;10322551;28;20216;-83
2022/07/12 10:57:54;;;;;;;2.92;0.77;;;26.20;25.60;;;;;;10385463;28;20204;-79
2022/07/12 11:03:15;;;;;;;0.82;0.80;;;26.10;25.50;;;;;;10349255;28;20755;-85
2022/07/12 11:08:57;;;;;;;1.60;0.50;;;26.00;25.30;;;;;;10313136;28;20194;-79
2022/07/12 11:14:34;;;;;;;0.80;0.50;;;25.90;25.00;;;;;;10338919;28;20194;-87
2022/07/12 11:20:11;;;;;;;1.85;0.57;;;26.00;26.10;;;;;;10352815;28;20425;-80
2022/07/12 11:25:34;;;;;;;0.47;0.47;;;26.40;23.90;;;;;;10334976;28;20815;-81
2022/07/12 11:31:11;;;;;;;1.90;0.60;;;25.80;22.50;;;;;;10271515;28;20222;-82
2022/07/12 11:36:33;;;;;;;2.63;0.70;;;25.30;24.40;;;;;;10269792;29;20211;-78
2022/07/12 11:41:57;;;;;;;1.38;0.65;;;25.10;25.00;;;;;;10270356;29;20218;-85
2022/07/12 11:47:21;;;;;;;2.85;0.80;;;25.10;25.60;;;;;;10270952;29;20218;-81
2022/07/12 11:52:43;;;;;;;7.68;0.60;;;25.20;23.80;;;;;;10267508;29;20200;-78
2022/07/12 11:58:06;;;;;;;3.00;0.60;;;25.60;22.60;;;;;;10251609;29;20199;-81
2022/07/12 12:03:28;;;;;;;0.50;0.50;;;25.40;22.60;;;;;;10253326;29;20198;-79
2022/07/12 12:08:51;;;;;;;2.25;0.50;;;25.50;22.50;;;;;;10270512;28;20191;-79
2022/07/12 12:14:12;;;;;;;2.33;0.60;;;25.60;21.80;;;;;;10232762;29;20207;-78
2022/07/12 12:19:42;;;;;;;4.38;0.77;;;25.00;20.60;;;;;;10262053;29;20561;-81
2022/07/12 12:25:06;;;;;;;0.50;0.50;;;24.80;22.50;;;;;;10269326;29;20290;-80
2022/07/12 12:30:30;;;;;;;0.60;0.60;;;24.70;21.60;;;;;;10344919;28;20242;-79
2022/07/12 12:35:52;;;;;;;0.90;0.50;;;25.00;22.30;;;;;;10322384;28;20756;-80
2022/07/12 12:41:14;;;;;;;1.20;0.60;;;25.40;22.20;;;;;;10308796;28;20221;-81
2022/07/12 12:52:48;;;;;;;7.43;0.85;;;25.30;22.80;;;;;;10324215;28;20240;-79
2022/07/12 12:58:11;;;;;;;4.20;1.15;;;25.70;21.40;;;;;;10383027;28;20430;-79
2022/07/12 13:03:33;;;;;;;3.97;1.00;;;25.60;19.30;;;;;;10349040;28;20194;-81
2022/07/12 13:08:55;;;;;;;5.47;0.70;;;25.60;19.30;;;;;;10334311;28;20210;-83
2022/07/12 13:14:17;;;;;;;1.35;0.52;;;25.60;19.10;;;;;;10357584;28;20250;-82
2022/07/12 13:19:39;;;;;;;0.50;0.50;;;26.10;19.70;;;;;;10363637;28;20237;-81
2022/07/12 13:25:00;;;;;;;1.65;0.60;;;26.30;19.60;;;;;;10348594;28;20200;-85
2022/07/12 13:30:22;;;;;;;3.70;0.50;;;26.00;18.50;;;;;;10340566;28;20237;-80
2022/07/12 13:35:44;;;;;;;2.63;0.50;;;25.60;18.30;;;;;;10347591;28;20198;-81
2022/07/12 13:41:07;;;;;;;2.33;0.50;;;25.30;20.00;;;;;;10348361;28;20280;-83
2022/07/12 13:46:28;;;;;;;5.00;1.08;;;25.00;21.30;;;;;;10348047;28;20202;-79
2022/07/12 13:51:50;;;;;;;1.25;0.70;;;25.20;21.70;;;;;;10362337;28;20232;-81
2022/07/12 13:57:11;;;;;;;0.40;0.40;;;25.40;21.30;;;;;;10382002;28;20738;-83
2022/07/12 14:02:33;;;;;;;2.55;0.63;;;25.50;22.40;;;;;;10349818;28;20225;-83
2022/07/12 14:07:54;;;;;;;1.08;0.55;;;25.10;23.30;;;;;;10355404;28;20392;-82
2022/07/12 14:13:16;;;;;;;10.43;0.98;;;24.60;20.80;;;;;;10355574;28;20201;-82
2022/07/12 14:18:38;;;;;;;0.70;0.50;;;24.20;20.80;;;;;;10355076;28;20288;-80
2022/07/12 14:24:02;;;;;;;0.50;0.50;;;24.10;21.80;;;;;;10354272;28;20228;-83
2022/07/12 14:29:24;;;;;;;3.17;0.77;;;24.10;22.20;;;;;;10369528;28;20269;-79
2022/07/12 14:34:45;;;;;;;1.35;0.82;;;24.20;23.50;;;;;;10335744;28;20564;-82
2022/07/12 14:40:07;;;;;;;1.80;0.65;;;24.30;23.00;;;;;;10315848;28;20403;-79
2022/07/12 14:45:29;;;;;;;2.15;0.55;;;24.30;23.00;;;;;;10328979;28;20206;-80
2022/07/12 14:50:50;;;;;;;2.55;0.85;;;24.10;22.00;;;;;;10355614;28;20244;-82
2022/07/12 14:56:13;;;;;;;0.57;0.57;;;24.00;23.50;;;;;;10371517;28;20272;-86
2022/07/12 15:01:35;;;;;;;0.60;0.60;;;23.90;24.10;;;;;;10409892;28;20308;-81
2022/07/12 15:06:56;;;;;;;1.35;0.60;;;23.90;24.60;;;;;;10394323;28;20210;-81
2022/07/12 15:12:19;;;;;;;2.15;1.05;;;23.90;25.80;;;;;;10340749;28;20240;-83
2022/07/12 15:17:41;;;;;;;6.03;0.70;;;24.00;26.10;;;;;;10369928;28;20409;-82
2022/07/12 15:23:02;;;;;;;1.55;0.77;;;23.90;25.70;;;;;;10314727;28;20273;-83
2022/07/12 15:28:28;;;;;;;0.70;0.65;;;23.90;25.50;;;;;;10318424;28;20233;-83
2022/07/12 15:33:51;;;;;;;0.70;0.70;;;23.60;25.90;;;;;;10313486;28;20205;-83
2022/07/12 15:39:12;;;;;;;2.38;0.73;;;23.50;25.50;;;;;;10316425;28;20376;-82
2022/07/12 15:44:34;;;;;;;1.52;0.65;;;23.40;26.20;;;;;;10317249;28;20459;-84
2022/07/12 15:49:56;;;;;;;1.20;0.80;;;23.30;25.50;;;;;;10329170;28;20367;-83
2022/07/12 15:55:18;;;;;;;2.25;0.50;;;23.20;26.20;;;;;;10345271;28;20521;-83
2022/07/12 16:00:40;;;;;;;2.55;0.70;;;;;;;;;;10352313;28;20221;-83
2022/07/12 16:06:03;;;;;;;1.08;0.70;;;23.10;25.60;;;;;;10355290;28;20563;-83
2022/07/12 16:11:25;;;;;;;7.15;0.60;;;23.00;25.00;;;;;;10354859;28;20280;-84
2022/07/12 16:16:47;;;;;;;0.65;0.65;;;22.80;25.60;;;;;;10355965;28;20566;-82
2022/07/12 16:22:09;;;;;;;1.25;0.75;;;22.90;25.90;;;;;;10356056;28;20222;-83
2022/07/12 16:27:30;;;;;;;1.40;0.75;;;22.80;26.00;;;;;;10354160;28;20233;-83
2022/07/12 16:32:52;;;;;;;1.67;0.77;;;22.80;26.40;;;;;;10354685;28;20200;-82
2022/07/12 16:38:13;;;;;;;2.15;0.57;;;22.70;27.50;;;;;;10370397;28;20244;-83
2022/07/12 16:43:34;;;;;;;2.53;0.90;;;22.60;27.60;;;;;;10355695;28;20271;-81
2022/07/12 16:48:56;;;;;;;2.38;0.80;;;22.60;28.40;;;;;;10370252;28;20387;-82
2022/07/12 16:54:17;;;;;;;1.98;1.20;;;22.50;28.80;;;;;;10369352;28;20435;-83
2022/07/12 16:59:39;;;;;;;2.03;0.90;;;22.40;30.00;;;;;;10342094;28;20541;-82
2022/07/12 17:05:02;;;;;;;1.17;0.70;;;22.20;29.50;;;;;;10367796;28;20201;-82
2022/07/12 17:10:23;;;;;;;0.90;0.57;;;22.10;32.80;;;;;;10337411;28;20426;-81
2022/07/12 17:15:47;;;;;;;1.77;0.75;;;22.10;35.80;;;;;;10327001;28;20198;-82
2022/07/12 17:21:10;;;;;;;6.15;1.75;;;22.00;35.90;;;;;;10314340;28;20604;-82
2022/07/12 17:26:32;;;;;;;3.63;1.48;;;22.00;38.80;;;;;;10323696;28;20313;-82
2022/07/12 17:31:53;;;;;;;3.55;0.98;;;21.90;42.90;;;;;;10361760;28;20220;-83
2022/07/12 17:37:15;;;;;;;3.67;0.95;;;21.80;43.90;;;;;;10362289;28;20492;-82
2022/07/12 17:42:37;;;;;;;0.90;0.70;;;21.70;46.10;;;;;;10361949;28;20224;-83
2022/07/12 17:48:00;;;;;;;2.42;0.90;;;21.60;50.00;;;;;;10361708;28;20194;-83
2022/07/12 17:53:23;;;;;;;2.13;1.00;;;21.50;53.70;;;;;;10325106;28;20210;-83
2022/07/12 17:58:45;;;;;;;4.70;1.10;;;21.40;57.30;;;;;;10399598;28;20392;-82
2022/07/12 18:04:07;;;;;;;3.08;1.27;;;21.20;60.60;;;;;;10417445;28;20267;-83
2022/07/12 18:09:28;;;;;;;2.50;1.00;;;21.10;60.80;;;;;;10387532;28;20202;-83
2022/07/12 18:14:50;;;;;;;1.60;0.98;;;21.00;65.70;;;;;;10359891;28;20232;-81
2022/07/12 18:20:15;;;;;;;3.22;1.30;;;20.90;69.60;;;;;;10362072;28;20264;-83
2022/07/12 18:25:37;;;;;;;5.60;1.52;;;20.80;72.30;;;;;;10338589;28;20218;-81
2022/07/12 18:30:58;;;;;;;2.33;1.30;;;20.70;77.30;;;;;;10326842;28;20194;-83
2022/07/12 18:36:20;;;;;;;2.55;1.33;;;20.60;81.90;;;;;;10319131;28;20195;-83
2022/07/12 18:41:42;;;;;;;3.67;1.23;;;20.50;83.90;;;;;;10318356;28;20587;-83
2022/07/12 18:47:04;;;;;;;3.55;1.50;;;20.30;87.60;;;;;;10318399;28;20557;-83
2022/07/12 18:52:25;;;;;;;2.20;1.10;;;20.30;89.00;;;;;;10319235;28;20202;-82
2022/07/12 18:57:47;;;;;;;1.98;1.45;;;20.10;90.90;;;;;;10390066;28;20356;-81
2022/07/12 19:03:08;;;;;;;2.85;1.10;;;20.00;92.00;;;;;;10366086;28;20249;-82
2022/07/12 19:08:30;;;;;;;5.88;1.40;;;19.90;93.10;;;;;;10337145;28;20273;-83
2022/07/12 19:13:51;;;;;;;2.70;1.42;;;19.80;94.00;;;;;;10346910;28;20232;-82
2022/07/12 19:19:13;;;;;;;4.47;1.50;;;19.70;95.10;;;;;;10357340;28;20323;-83
2022/07/12 19:24:34;;;;;;;3.60;1.58;;;19.70;99.90;;;;;;10358125;28;20201;-82
2022/07/12 19:29:56;;;;;;;4.93;1.63;;;19.50;98.30;;;;;;10357408;28;20233;-83
2022/07/12 19:35:18;;;;;;;3.50;1.40;;;19.40;98.60;;;;;;10356733;28;20193;-82
2022/07/12 19:40:40;;;;;;;2.55;1.10;;;19.30;99.40;;;;;;10353601;28;20312;-80
2022/07/12 19:46:01;;;;;;;6.55;1.60;;;19.10;99.00;;;;;;10346464;28;20265;-78
2022/07/12 19:51:23;;;;;;;3.42;1.58;;;19.10;99.90;;;;;;10334148;28;20198;-79
2022/07/12 19:56:45;;;;;;;3.80;1.65;;;19.00;99.90;;;;;;10363812;28;20189;-82
2022/07/12 20:02:07;;;;;;;4.97;1.65;;;18.80;1.00;;;;;;10406399;28;20454;-82
2022/07/12 20:07:28;;;;;;;2.53;1.40;;;18.70;1.00;;;;;;10316475;28;20232;-83
2022/07/12 20:12:51;;;;;;;7.40;2.53;;;18.60;1.00;;;;;;10350526;28;20208;-83
2022/07/12 20:18:13;;;;;;;7.60;2.67;;;18.50;1.00;;;;;;10356258;28;20204;-81
2022/07/12 20:23:36;;;;;;;3.72;1.80;;;18.40;1.00;;;;;;10355209;28;20312;-83
2022/07/12 20:28:58;;;;;;;4.53;1.85;;;18.30;1.00;;;;;;10354492;28;20313;-82
2022/07/12 20:34:25;;;;;;;5.03;1.83;;;18.30;1.00;;;;;;10333752;28;20500;-82
2022/07/12 20:39:47;;;;;;;3.13;1.88;;;18.20;1.00;;;;;;10315105;28;20217;-81
2022/07/12 20:45:09;;;;;;;3.53;2.10;;;18.10;1.00;;;;;;10315225;28;20194;-83
2022/07/12 20:50:30;;;;;;;6.85;2.78;;;18.10;1.00;;;;;;10330069;28;20555;-82
2022/07/12 20:55:53;;;;;;;6.22;2.05;;;18.00;13.40;;;;;;10360253;28;20207;-82
2022/07/12 21:01:14;;;;;;;4.57;2.40;;;17.90;35.60;;;;;;10407880;28;20311;-81
2022/07/12 21:06:36;;;;;;;8.93;3.03;;;17.90;45.10;;;;;;10341651;28;20222;-82
2022/07/12 21:11:58;;;;;;;4.32;2.35;;;17.80;84.80;;;;;;10354356;28;20228;-82
2022/07/12 21:17:19;;;;;;;5.07;2.40;;;17.90;90.90;;;;;;10353918;28;20192;-81
2022/07/12 21:22:41;;;;;;;3.80;2.38;;;17.80;98.20;;;;;;10354361;28;20225;-82
2022/07/12 21:28:03;;;;;;;4.00;2.53;;;17.80;99.90;;;;;;10353681;28;20225;-83
2022/07/12 21:33:24;;;;;;;7.25;2.65;;;17.50;99.90;;;;;;10338523;28;20198;-82
2022/07/12 21:38:46;;;;;;;4.75;2.50;;;17.50;99.90;;;;;;10366947;28;20227;-83
2022/07/12 21:44:08;;;;;;;5.18;2.88;;;17.50;99.90;;;;;;10366749;28;20506;-81
2022/07/12 21:49:30;;;;;;;2.97;2.28;;;17.40;99.90;;;;;;10354053;28;20424;-82
2022/07/12 21:54:52;;;;;;;5.43;2.35;;;17.40;99.90;;;;;;10361034;28;20483;-83
2022/07/12 22:00:18;;;;;;;3.92;2.13;;;17.40;99.90;;;;;;10394443;28;20457;-80
2022/07/12 22:05:39;;;;;;;4.32;2.40;;;17.50;99.90;;;;;;10323251;28;20193;-81
2022/07/12 22:11:02;;;;;;;3.90;2.38;;;17.40;99.90;;;;;;10339377;28;20281;-77
2022/07/12 22:16:23;;;;;;;3.47;2.35;;;17.50;99.90;;;;;;10359520;28;20198;-77
2022/07/12 22:21:45;;;;;;;6.57;2.20;;;17.40;99.90;;;;;;10360581;28;20240;-82
2022/07/12 22:27:07;;;;;;;3.25;2.47;;;17.40;99.90;;;;;;10359398;28;20287;-82
2022/07/12 22:32:29;;;;;;;4.70;1.92;;;17.40;99.90;;;;;;10350628;28;20195;-82
2022/07/12 22:37:50;;;;;;;2.17;1.80;;;17.40;99.90;;;;;;10318959;28;20216;-78
2022/07/12 22:43:12;;;;;;;5.80;2.05;;;17.30;99.90;;;;;;10318831;28;20227;-78
2022/07/12 22:48:33;;;;;;;3.55;1.83;;;17.40;99.90;;;;;;10318787;28;20203;-79
2022/07/12 22:53:54;;;;;;;3.05;1.92;;;17.30;99.90;;;;;;10360097;28;20200;-79
2022/07/12 22:59:17;;;;;;;2.42;1.58;;;17.30;99.90;;;;;;10384957;28;20200;-79
2022/07/12 23:04:38;;;;;;;6.43;1.67;;;17.20;99.90;;;;;;10368810;28;20201;-82
2022/07/12 23:09:59;;;;;;;3.92;1.70;;;17.20;99.90;;;;;;10357728;28;20235;-78
2022/07/12 23:15:21;;;;;;;5.60;1.90;;;17.20;99.90;;;;;;10358615;28;20216;-81
2022/07/12 23:20:43;;;;;;;3.30;1.60;;;17.10;99.90;;;;;;10357252;28;20439;-81
2022/07/12 23:26:05;;;;;;;10.00;2.00;;;17.20;99.90;;;;;;10356129;28;20427;-79
2022/07/12 23:31:27;;;;;;;3.75;1.92;;;17.00;99.90;;;;;;10357526;28;20202;-79
2022/07/12 23:36:49;;;;;;;3.40;1.70;;;17.10;99.90;;;;;;10327467;28;20198;-82
2022/07/12 23:42:10;;;;;;;3.63;1.75;;;17.00;99.90;;;;;;10317530;28;20229;-82
2022/07/12 23:47:33;;;;;;;6.75;1.95;;;16.90;99.90;;;;;;10317057;28;20200;-82
2022/07/12 23:52:54;;;;;;;2.83;1.40;;;16.90;99.90;;;;;;10365020;28;20501;-82
2022/07/12 23:58:15;;;;;;;1.85;1.20;;;16.90;99.90;;;;;;10392655;28;20213;-82
